Time;durP1;ratioP1;P1;durP2;ratioP2;P2;SDS_P1;SDS_P2;PMS_P1;PMS_P2;Temp;Humidity;BMP_temperature;BMP_pressure;BME280_temperature;BME280_humidity;BME280_pressure;Samples;Min_cycle;Max_cycle;Signal;HPM_P1;HPM_P2
2023/01/10 00:02:18;;;;;;;39.45;11.23;;;5.50;99.90;;;;;;5041644;28;20153;-72
2023/01/10 00:04:43;;;;;;;34.03;11.77;;;5.40;99.90;;;;;;5041460;28;20383;-72
2023/01/10 00:07:09;;;;;;;38.03;11.85;;;5.50;99.90;;;;;;5041304;28;20029;-72
2023/01/10 00:09:35;;;;;;;37.72;10.70;;;5.40;99.90;;;;;;5041403;28;20029;-73
2023/01/10 00:14:44;;;;;;;31.55;10.40;;;5.40;99.90;;;;;;5042527;28;20444;-74
2023/01/10 00:17:10;;;;;;;32.30;11.70;;;5.30;99.90;;;;;;5042652;28;20068;-73
2023/01/10 00:19:36;;;;;;;38.83;11.63;;;5.40;99.90;;;;;;5040547;28;20026;-72
2023/01/10 00:22:04;;;;;;;39.00;10.50;;;5.40;99.90;;;;;;5041320;28;20029;-74
2023/01/10 00:24:30;;;;;;;30.55;10.40;;;5.40;99.90;;;;;;5040694;28;20430;-74
2023/01/10 00:26:56;;;;;;;34.88;11.30;;;5.50;99.90;;;;;;5040140;28;20387;-75
2023/01/10 00:29:30;;;;;;;30.65;10.65;;;5.50;99.90;;;;;;5041092;28;20034;-74
2023/01/10 00:31:57;;;;;;;33.47;10.45;;;5.50;99.90;;;;;;5040553;28;20032;-74
2023/01/10 00:34:23;;;;;;;28.38;10.02;;;5.50;99.90;;;;;;5042359;28;20029;-73
2023/01/10 00:36:48;;;;;;;32.30;9.25;;;5.60;99.90;;;;;;5042195;28;20037;-73
2023/01/10 00:39:17;;;;;;;28.25;9.70;;;5.70;99.90;;;;;;5041904;28;20104;-73
2023/01/10 00:44:28;;;;;;;29.77;8.80;;;5.70;99.90;;;;;;5042207;28;20394;-75
2023/01/10 00:46:54;;;;;;;29.55;10.07;;;5.60;99.90;;;;;;5042250;28;20411;-73
2023/01/10 00:49:20;;;;;;;30.70;10.43;;;5.70;99.90;;;;;;5041917;28;20488;-73
2023/01/10 00:51:45;;;;;;;27.00;8.43;;;5.70;99.90;;;;;;5040227;28;20088;-73
2023/01/10 00:54:12;;;;;;;21.05;8.52;;;5.60;99.90;;;;;;5041188;28;20096;-74
2023/01/10 00:56:38;;;;;;;23.50;7.85;;;5.70;99.90;;;;;;5041366;28;20117;-73
2023/01/10 00:59:05;;;;;;;26.02;8.23;;;5.60;99.90;;;;;;5041610;28;20065;-73
2023/01/10 01:01:31;;;;;;;21.35;7.78;;;5.70;99.90;;;;;;5040544;28;20550;-74
2023/01/10 01:03:58;;;;;;;21.73;7.65;;;5.70;99.90;;;;;;5040253;28;20034;-73
2023/01/10 01:06:24;;;;;;;19.58;6.45;;;5.70;99.90;;;;;;5041619;28;20033;-72
2023/01/10 01:08:50;;;;;;;17.25;7.05;;;5.70;99.90;;;;;;5039504;28;20018;-71
2023/01/10 01:11:16;;;;;;;24.33;7.32;;;5.60;99.90;;;;;;5041342;28;20474;-72
2023/01/10 01:13:41;;;;;;;19.17;6.32;;;5.70;99.90;;;;;;5040193;28;20063;-74
2023/01/10 01:16:07;;;;;;;16.73;6.32;;;5.60;99.90;;;;;;5039918;28;20120;-72
2023/01/10 01:18:33;;;;;;;22.30;6.38;;;5.60;99.90;;;;;;5041178;28;20044;-74
2023/01/10 01:21:02;;;;;;;18.58;6.07;;;5.60;99.90;;;;;;5041468;28;20036;-73
2023/01/10 01:23:28;;;;;;;14.15;4.72;;;5.60;99.90;;;;;;5039992;28;20057;-74
2023/01/10 01:25:54;;;;;;;17.80;6.47;;;5.60;99.90;;;;;;5039875;28;20060;-72
2023/01/10 01:28:23;;;;;;;23.45;6.07;;;5.50;99.90;;;;;;5041133;28;20022;-74
2023/01/10 01:30:49;;;;;;;17.80;5.43;;;5.60;99.90;;;;;;5039826;28;20041;-74
2023/01/10 01:33:15;;;;;;;17.80;5.47;;;5.50;99.90;;;;;;5039835;28;20021;-70
2023/01/10 01:35:42;;;;;;;26.20;5.95;;;5.50;99.90;;;;;;5040011;28;20026;-72
2023/01/10 01:38:07;;;;;;;15.68;4.88;;;5.50;99.90;;;;;;5040622;28;20060;-72
2023/01/10 01:40:36;;;;;;;16.35;4.90;;;5.50;99.90;;;;;;5039650;28;20021;-73
2023/01/10 01:43:02;;;;;;;19.83;5.22;;;5.40;99.90;;;;;;5038093;28;20026;-73
2023/01/10 01:45:28;;;;;;;20.83;5.22;;;5.40;99.90;;;;;;5038226;28;20557;-74
2023/01/10 01:47:56;;;;;;;16.73;5.25;;;5.40;99.90;;;;;;5038897;28;20021;-72
2023/01/10 01:50:37;;;;;;;17.05;5.15;;;5.40;99.90;;;;;;5039309;28;20039;-73
2023/01/10 01:53:12;;;;;;;15.07;5.00;;;5.40;99.90;;;;;;5039611;28;20033;-74
2023/01/10 01:55:38;;;;;;;13.13;4.97;;;5.40;99.90;;;;;;5039215;28;20022;-74
2023/01/10 01:58:12;;;;;;;21.35;5.15;;;5.30;99.90;;;;;;5038662;28;20084;-74
2023/01/10 02:00:37;;;;;;;21.58;5.10;;;5.40;99.90;;;;;;5037761;28;20029;-72
2023/01/10 02:03:04;;;;;;;21.10;5.10;;;5.40;99.90;;;;;;5039570;28;20482;-73
2023/01/10 02:05:32;;;;;;;15.63;4.63;;;5.30;99.90;;;;;;5038181;28;20023;-72
2023/01/10 02:08:01;;;;;;;17.88;4.82;;;5.40;99.90;;;;;;5039087;28;20971;-72
2023/01/10 02:10:36;;;;;;;22.00;5.20;;;5.30;99.90;;;;;;5042350;28;20379;-75
2023/01/10 02:13:05;;;;;;;14.60;4.63;;;5.30;99.90;;;;;;5043539;28;20032;-74
2023/01/10 02:15:31;;;;;;;16.35;4.60;;;5.20;99.90;;;;;;5043453;28;20419;-75
2023/01/10 02:17:59;;;;;;;21.15;4.40;;;5.40;99.90;;;;;;5043369;28;20068;-73
2023/01/10 02:20:26;;;;;;;13.90;4.50;;;5.30;99.90;;;;;;5042273;28;20038;-74
2023/01/10 02:23:25;;;;;;;10.82;4.28;;;5.40;99.90;;;;;;5042253;28;20047;-75
2023/01/10 02:26:15;;;;;;;15.85;4.20;;;5.30;99.90;;;;;;5043258;28;20053;-74
2023/01/10 02:29:02;;;;;;;15.00;4.47;;;5.30;99.90;;;;;;5041114;28;20025;-72
2023/01/10 02:31:53;;;;;;;18.63;4.25;;;5.30;99.90;;;;;;5043075;28;20036;-76
2023/01/10 02:34:21;;;;;;;14.02;4.75;;;5.30;99.90;;;;;;5042650;28;20146;-73
2023/01/10 02:36:54;;;;;;;20.05;4.80;;;5.30;99.90;;;;;;5042687;28;20013;-72
2023/01/10 02:39:35;;;;;;;16.05;4.22;;;5.30;99.90;;;;;;5041741;28;20037;-70
2023/01/10 02:42:33;;;;;;;18.48;3.83;;;5.20;99.90;;;;;;5042183;28;20044;-74
2023/01/10 02:45:08;;;;;;;13.20;3.42;;;5.20;99.90;;;;;;5027531;28;20045;-73
2023/01/10 02:47:39;;;;;;;18.90;3.97;;;5.20;99.90;;;;;;5042847;28;20056;-72
2023/01/10 02:50:36;;;;;;;14.02;4.03;;;5.20;99.90;;;;;;5042854;28;20025;-72
2023/01/10 02:53:06;;;;;;;22.95;5.18;;;5.10;99.90;;;;;;5042123;28;20040;-73
2023/01/10 02:56:05;;;;;;;14.23;4.55;;;5.10;99.90;;;;;;5042398;28;20029;-72
2023/01/10 02:58:52;;;;;;;10.35;4.28;;;5.10;99.90;;;;;;5042698;28;20044;-73
2023/01/10 03:02:02;;;;;;;19.10;4.70;;;5.00;99.90;;;;;;5042154;28;20025;-71
2023/01/10 03:04:39;;;;;;;17.85;4.40;;;5.00;99.90;;;;;;5041023;28;20033;-72
2023/01/10 03:07:22;;;;;;;16.40;3.97;;;5.00;99.90;;;;;;5041174;28;20057;-73
2023/01/10 03:10:03;;;;;;;14.95;4.03;;;5.00;99.90;;;;;;5040851;28;20064;-72
2023/01/10 03:12:28;;;;;;;20.20;4.05;;;5.00;99.90;;;;;;5042804;28;20485;-74
2023/01/10 03:14:56;;;;;;;12.85;4.00;;;4.90;99.90;;;;;;5043947;28;20052;-72
2023/01/10 03:17:23;;;;;;;18.95;4.43;;;5.00;99.90;;;;;;5042287;28;20119;-71
2023/01/10 03:20:01;;;;;;;14.95;4.20;;;4.90;99.90;;;;;;5041787;28;20038;-74
2023/01/10 03:22:28;;;;;;;13.88;3.92;;;4.90;99.90;;;;;;5043929;28;20151;-73
2023/01/10 03:24:57;;;;;;;13.35;4.30;;;4.90;99.90;;;;;;5042630;28;20117;-75
2023/01/10 03:27:46;;;;;;;20.05;3.92;;;4.90;99.90;;;;;;5041675;28;20049;-74
2023/01/10 03:30:26;;;;;;;12.93;4.25;;;4.90;99.90;;;;;;5042927;28;20036;-74
2023/01/10 03:32:55;;;;;;;14.02;3.83;;;4.90;99.90;;;;;;5042329;28;20071;-74
2023/01/10 03:35:27;;;;;;;13.20;4.00;;;4.90;99.90;;;;;;5042922;28;20033;-72
2023/01/10 03:37:56;;;;;;;18.73;3.88;;;5.00;99.90;;;;;;5041547;28;20033;-73
2023/01/10 03:40:40;;;;;;;18.35;4.45;;;5.00;99.90;;;;;;5041762;28;20033;-73
2023/01/10 03:46:42;;;;;;;19.33;4.53;;;5.00;99.90;;;;;;5043084;28;20036;-73
2023/01/10 03:49:09;;;;;;;15.48;4.28;;;5.00;99.90;;;;;;5042984;28;20026;-71
2023/01/10 03:51:37;;;;;;;26.65;4.50;;;5.00;99.90;;;;;;5041651;28;20052;-73
2023/01/10 03:54:04;;;;;;;20.70;4.60;;;5.10;99.90;;;;;;5043083;28;20026;-74
2023/01/10 03:56:30;;;;;;;25.30;4.03;;;5.00;99.90;;;;;;5041816;28;20030;-74
2023/01/10 03:58:56;;;;;;;21.20;3.95;;;5.00;99.90;;;;;;5043068;28;20072;-73
2023/01/10 04:01:22;;;;;;;12.60;3.35;;;5.00;99.90;;;;;;5042966;28;20057;-74
2023/01/10 04:03:47;;;;;;;21.10;4.07;;;5.00;99.90;;;;;;5042667;28;20033;-73
2023/01/10 04:06:13;;;;;;;21.52;3.83;;;5.00;99.90;;;;;;5042796;28;20025;-72
2023/01/10 04:08:38;;;;;;;29.55;4.28;;;5.00;99.90;;;;;;5041169;28;20018;-72
2023/01/10 04:11:04;;;;;;;19.00;4.40;;;5.00;99.90;;;;;;5041305;28;20029;-73
2023/01/10 04:13:30;;;;;;;24.58;4.35;;;5.00;99.90;;;;;;5041590;28;20056;-74
2023/01/10 04:15:59;;;;;;;29.88;4.95;;;4.90;99.90;;;;;;5042320;28;20025;-72
2023/01/10 04:18:25;;;;;;;21.02;4.45;;;4.90;99.90;;;;;;5042449;28;20160;-77
2023/01/10 04:20:50;;;;;;;23.60;4.53;;;4.90;99.90;;;;;;5040943;28;20041;-72
2023/01/10 04:23:16;;;;;;;20.42;4.40;;;4.90;99.90;;;;;;5041157;28;20561;-73
2023/01/10 04:25:46;;;;;;;28.98;4.80;;;4.90;99.90;;;;;;5042077;28;20041;-76
2023/01/10 04:28:12;;;;;;;23.42;4.93;;;4.90;99.90;;;;;;5041957;28;20041;-72
2023/01/10 04:30:37;;;;;;;22.98;5.00;;;4.90;99.90;;;;;;5041560;28;20025;-72
2023/01/10 04:33:03;;;;;;;21.85;4.65;;;4.80;99.90;;;;;;5040888;28;20022;-74
2023/01/10 04:35:28;;;;;;;15.75;4.57;;;4.80;99.90;;;;;;5040737;28;20037;-75
2023/01/10 04:37:54;;;;;;;22.30;4.97;;;4.80;99.90;;;;;;5041094;28;20037;-75
2023/01/10 04:40:22;;;;;;;26.90;5.03;;;4.80;99.90;;;;;;5042049;28;20083;-72
2023/01/10 04:42:48;;;;;;;20.65;4.13;;;4.80;99.90;;;;;;5041952;28;21414;-73
2023/01/10 04:45:16;;;;;;;16.70;4.32;;;4.80;99.90;;;;;;5039967;28;20041;-72
2023/01/10 04:47:42;;;;;;;28.85;5.30;;;4.80;99.90;;;;;;5041555;28;20036;-73
2023/01/10 04:50:08;;;;;;;20.63;4.63;;;4.80;99.90;;;;;;5041968;28;20037;-73
2023/01/10 04:52:33;;;;;;;28.98;5.47;;;4.80;99.90;;;;;;5041344;28;20037;-73
2023/01/10 04:54:59;;;;;;;22.52;4.70;;;4.80;99.90;;;;;;5041995;28;20025;-74
2023/01/10 04:57:25;;;;;;;20.27;5.20;;;4.90;99.90;;;;;;5040123;28;20132;-73
2023/01/10 04:59:50;;;;;;;24.55;4.65;;;5.00;99.90;;;;;;5040201;28;20029;-73
2023/01/10 05:02:16;;;;;;;21.38;4.22;;;4.90;99.90;;;;;;5041529;28;20077;-73
2023/01/10 05:04:41;;;;;;;15.38;3.95;;;4.90;99.90;;;;;;5041587;28;20092;-71
2023/01/10 05:07:07;;;;;;;15.63;3.90;;;4.90;99.90;;;;;;5040009;28;20394;-73
2023/01/10 05:09:32;;;;;;;19.05;4.32;;;5.00;99.90;;;;;;5040364;28;20096;-70
2023/01/10 05:11:58;;;;;;;21.95;4.53;;;5.10;99.90;;;;;;5040324;28;20036;-70
2023/01/10 05:14:24;;;;;;;26.35;4.95;;;5.00;99.90;;;;;;5041152;28;20029;-73
2023/01/10 05:16:50;;;;;;;22.98;4.97;;;5.10;99.90;;;;;;5041483;28;20040;-73
2023/01/10 05:19:15;;;;;;;26.08;4.85;;;5.10;99.90;;;;;;5040820;28;20071;-73
2023/01/10 05:21:41;;;;;;;24.85;4.53;;;5.10;99.90;;;;;;5041414;28;20030;-72
2023/01/10 05:24:08;;;;;;;23.23;5.20;;;5.20;99.90;;;;;;5039788;28;20026;-75
2023/01/10 05:26:34;;;;;;;22.70;4.50;;;5.20;99.90;;;;;;5041137;28;20425;-73
2023/01/10 05:28:59;;;;;;;25.45;4.53;;;5.20;99.90;;;;;;5039990;28;20418;-75
2023/01/10 05:31:25;;;;;;;22.08;3.83;;;5.30;99.90;;;;;;5039544;28;20033;-74
2023/01/10 05:33:50;;;;;;;25.63;4.85;;;5.30;99.90;;;;;;5039595;28;20025;-73
2023/01/10 05:36:17;;;;;;;17.42;4.00;;;5.30;99.90;;;;;;5039721;28;20412;-74
2023/01/10 05:38:43;;;;;;;22.35;4.80;;;5.30;99.90;;;;;;5040477;28;20037;-75
2023/01/10 05:41:08;;;;;;;17.38;4.05;;;5.40;99.90;;;;;;5039387;28;20429;-73
2023/01/10 05:43:34;;;;;;;25.67;4.45;;;5.30;99.90;;;;;;5040343;28;20476;-72
2023/01/10 05:46:00;;;;;;;22.05;4.35;;;5.20;99.90;;;;;;5039812;28;20022;-73
2023/01/10 05:48:26;;;;;;;28.60;4.40;;;5.30;99.90;;;;;;5039770;28;20029;-73
2023/01/10 05:50:52;;;;;;;23.65;3.78;;;5.30;99.90;;;;;;5039241;28;20036;-72
2023/01/10 05:53:18;;;;;;;15.60;3.95;;;5.30;99.90;;;;;;5039579;28;20037;-73
2023/01/10 05:55:52;;;;;;;23.10;4.63;;;5.30;99.90;;;;;;5040559;28;20022;-73
2023/01/10 05:58:17;;;;;;;25.27;4.27;;;5.30;99.90;;;;;;5039502;28;20105;-74
2023/01/10 06:00:43;;;;;;;21.05;4.47;;;5.30;99.90;;;;;;5040863;28;20030;-72
2023/01/10 06:03:08;;;;;;;23.45;4.57;;;5.40;99.90;;;;;;5039534;28;20071;-73
2023/01/10 06:05:34;;;;;;;16.67;3.85;;;5.30;99.90;;;;;;5040654;28;20032;-72
2023/01/10 06:08:00;;;;;;;31.75;4.57;;;5.30;99.90;;;;;;5040755;28;20026;-75
2023/01/10 06:10:25;;;;;;;25.13;4.63;;;5.30;99.90;;;;;;5039787;28;20013;-73
2023/01/10 06:12:51;;;;;;;20.73;4.43;;;5.40;99.90;;;;;;5040669;28;20030;-73
2023/01/10 06:15:16;;;;;;;36.15;5.32;;;5.40;99.90;;;;;;5039362;28;20437;-73
2023/01/10 06:17:43;;;;;;;18.10;4.38;;;5.40;99.90;;;;;;5038784;28;20078;-72
2023/01/10 06:20:10;;;;;;;19.05;4.70;;;5.40;99.90;;;;;;5040619;28;20036;-72
2023/01/10 06:22:38;;;;;;;27.38;4.90;;;5.40;99.90;;;;;;5039254;28;20471;-72
2023/01/10 06:25:04;;;;;;;23.90;4.45;;;5.40;99.90;;;;;;5039882;28;20049;-72
2023/01/10 06:27:29;;;;;;;26.65;4.88;;;5.40;99.90;;;;;;5038746;28;20025;-72
2023/01/10 06:29:55;;;;;;;17.67;4.63;;;5.40;99.90;;;;;;5039676;28;20423;-73
2023/01/10 06:32:21;;;;;;;25.27;4.60;;;5.50;99.90;;;;;;5038404;28;20036;-74
2023/01/10 06:34:46;;;;;;;22.92;5.20;;;5.60;99.90;;;;;;5039049;28;20028;-71
2023/01/10 06:37:13;;;;;;;24.50;5.22;;;5.40;99.90;;;;;;5039041;28;20036;-73
2023/01/10 06:39:39;;;;;;;21.17;4.55;;;5.50;99.90;;;;;;5040528;28;20040;-71
2023/01/10 06:42:04;;;;;;;25.60;5.57;;;5.40;99.90;;;;;;5038019;28;20152;-71
2023/01/10 06:44:30;;;;;;;23.90;5.45;;;5.40;99.90;;;;;;5038391;28;20030;-72
2023/01/10 06:46:56;;;;;;;20.88;5.18;;;5.50;99.90;;;;;;5039886;28;20025;-72
2023/01/10 06:49:21;;;;;;;25.38;5.75;;;5.50;99.90;;;;;;5039011;28;20030;-72
2023/01/10 06:51:47;;;;;;;16.27;5.03;;;5.50;99.90;;;;;;5034401;28;20029;-74
2023/01/10 06:54:12;;;;;;;21.50;5.53;;;5.50;99.90;;;;;;5040972;28;20038;-73
2023/01/10 06:56:38;;;;;;;30.27;5.75;;;5.50;99.90;;;;;;5041346;28;20033;-71
2023/01/10 06:59:04;;;;;;;16.50;5.20;;;5.50;99.90;;;;;;5041409;28;20047;-72
2023/01/10 07:01:29;;;;;;;23.73;6.35;;;5.50;99.90;;;;;;5041423;28;20059;-70
2023/01/10 07:03:55;;;;;;;30.75;5.32;;;5.50;99.90;;;;;;5041429;28;20386;-73
2023/01/10 07:06:21;;;;;;;28.35;5.78;;;5.50;99.90;;;;;;5034990;28;20117;-72
2023/01/10 07:08:46;;;;;;;21.60;5.45;;;5.50;99.90;;;;;;5037003;28;20033;-73
2023/01/10 07:11:14;;;;;;;22.08;5.85;;;5.50;99.90;;;;;;5036830;28;20029;-72
2023/01/10 07:13:40;;;;;;;20.35;5.88;;;5.50;99.90;;;;;;5037905;28;20032;-72
2023/01/10 07:16:06;;;;;;;17.20;5.22;;;5.50;99.90;;;;;;5038372;28;20545;-73
2023/01/10 07:18:36;;;;;;;36.95;6.55;;;5.50;99.90;;;;;;5043210;28;20040;-73
2023/01/10 07:21:02;;;;;;;25.67;5.60;;;5.40;99.90;;;;;;5042404;28;20025;-71
2023/01/10 07:23:29;;;;;;;30.35;5.43;;;5.40;99.90;;;;;;5042363;28;20026;-72
2023/01/10 07:25:56;;;;;;;23.75;5.43;;;5.40;99.90;;;;;;5041766;28;20038;-72
2023/01/10 07:28:22;;;;;;;28.17;6.57;;;5.40;99.90;;;;;;5043475;28;20032;-72
2023/01/10 07:30:48;;;;;;;25.98;5.55;;;5.40;99.90;;;;;;5043529;28;20029;-70
2023/01/10 07:33:31;;;;;;;24.73;5.47;;;5.40;99.90;;;;;;5043317;28;20030;-73
2023/01/10 07:35:57;;;;;;;23.23;5.25;;;5.40;99.90;;;;;;5041845;28;20036;-71
2023/01/10 07:38:22;;;;;;;23.13;5.85;;;5.40;99.90;;;;;;5042910;28;20126;-72
2023/01/10 07:40:49;;;;;;;31.13;6.70;;;5.50;99.90;;;;;;5042050;28;20029;-69
2023/01/10 07:43:14;;;;;;;23.17;5.30;;;5.40;99.90;;;;;;5042846;28;20024;-72
2023/01/10 07:45:40;;;;;;;19.58;5.70;;;5.40;99.90;;;;;;5041862;28;20392;-72
2023/01/10 07:48:06;;;;;;;23.80;6.20;;;5.40;99.90;;;;;;5042693;28;20029;-74
2023/01/10 07:50:34;;;;;;;28.77;7.13;;;5.50;99.90;;;;;;5041827;28;20025;-72
2023/01/10 07:53:00;;;;;;;25.60;6.25;;;5.50;99.90;;;;;;5041819;28;20087;-72
2023/01/10 07:55:33;;;;;;;29.35;8.50;;;5.40;99.90;;;;;;5041410;28;20565;-72
2023/01/10 07:57:59;;;;;;;31.48;7.47;;;5.50;99.90;;;;;;5043004;28;20034;-72
2023/01/10 08:00:25;;;;;;;26.15;7.45;;;5.60;99.90;;;;;;5041999;28;20034;-72
2023/01/10 08:02:55;;;;;;;23.42;8.63;;;5.50;99.90;;;;;;5042973;28;20029;-72
2023/01/10 08:05:21;;;;;;;33.58;9.00;;;5.60;99.90;;;;;;5041755;28;20033;-72
2023/01/10 08:07:47;;;;;;;33.05;8.25;;;5.60;99.90;;;;;;5042844;28;20018;-72
2023/01/10 08:10:13;;;;;;;30.98;8.27;;;5.70;99.90;;;;;;5042999;28;20052;-71
2023/01/10 08:12:39;;;;;;;28.67;7.90;;;5.80;99.90;;;;;;5042703;28;20045;-72
2023/01/10 08:15:05;;;;;;;23.00;8.10;;;5.80;99.90;;;;;;5030196;28;20033;-70
2023/01/10 08:17:34;;;;;;;25.80;8.32;;;5.80;99.90;;;;;;5033175;28;20038;-71
2023/01/10 08:20:00;;;;;;;33.03;7.95;;;5.80;99.90;;;;;;5038650;28;20022;-74
2023/01/10 08:22:26;;;;;;;22.88;8.20;;;5.70;99.90;;;;;;5039019;28;20095;-72
2023/01/10 08:24:52;;;;;;;31.48;8.85;;;5.70;99.90;;;;;;5041020;28;20103;-71
2023/01/10 08:27:17;;;;;;;32.30;8.85;;;5.60;99.90;;;;;;5040154;28;20029;-71
2023/01/10 08:29:43;;;;;;;35.35;8.43;;;5.70;99.90;;;;;;5039406;28;20036;-72
2023/01/10 08:32:09;;;;;;;27.27;8.25;;;5.60;99.90;;;;;;5039147;28;20029;-71
2023/01/10 08:34:35;;;;;;;31.30;8.48;;;5.60;99.90;;;;;;5039738;28;20139;-73
2023/01/10 08:37:00;;;;;;;40.05;11.32;;;5.70;99.90;;;;;;5041577;28;20032;-70
2023/01/10 08:39:29;;;;;;;30.30;9.68;;;5.70;99.90;;;;;;5042439;28;21306;-69
2023/01/10 08:41:55;;;;;;;38.13;10.38;;;6.10;99.90;;;;;;5042314;28;20021;-69
2023/01/10 08:44:21;;;;;;;39.13;11.23;;;6.40;99.90;;;;;;5040866;28;20123;-70
2023/01/10 08:46:46;;;;;;;30.50;9.65;;;6.60;99.90;;;;;;5041936;28;20037;-69
2023/01/10 08:49:12;;;;;;;31.90;10.57;;;6.90;99.90;;;;;;5040343;28;20104;-71
2023/01/10 08:51:38;;;;;;;28.35;10.30;;;6.90;99.90;;;;;;5042047;28;20025;-68
2023/01/10 08:54:04;;;;;;;28.67;10.60;;;6.90;99.90;;;;;;5041778;28;20089;-71
2023/01/10 08:56:30;;;;;;;38.35;11.00;;;6.70;99.90;;;;;;5042268;28;20026;-72
2023/01/10 08:58:56;;;;;;;34.75;11.27;;;6.60;99.90;;;;;;5041654;28;20059;-71
2023/01/10 09:01:21;;;;;;;35.42;10.20;;;6.50;99.90;;;;;;5041859;28;20077;-68
2023/01/10 09:03:47;;;;;;;31.38;11.00;;;6.40;99.90;;;;;;5040518;28;20183;-70
2023/01/10 09:06:12;;;;;;;42.00;11.50;;;6.30;99.90;;;;;;5039742;28;20023;-71
2023/01/10 09:08:38;;;;;;;33.22;11.82;;;6.30;99.90;;;;;;5041462;28;20052;-72
2023/01/10 09:11:04;;;;;;;39.38;11.98;;;6.20;99.90;;;;;;5038893;28;20041;-70
2023/01/10 09:13:30;;;;;;;30.80;9.90;;;6.20;99.90;;;;;;5040269;28;20017;-71
2023/01/10 09:15:57;;;;;;;31.30;11.82;;;6.10;99.90;;;;;;5040061;28;20316;-70
2023/01/10 09:18:23;;;;;;;34.30;11.73;;;6.10;99.90;;;;;;5039880;28;20062;-72
2023/01/10 09:20:49;;;;;;;37.20;12.35;;;6.00;99.90;;;;;;5039594;28;20047;-70
2023/01/10 09:23:18;;;;;;;41.42;11.70;;;6.10;99.90;;;;;;5040910;28;20104;-71
2023/01/10 09:25:49;;;;;;;35.72;11.32;;;6.10;99.90;;;;;;5039116;28;20064;-71
2023/01/10 09:28:16;;;;;;;29.38;10.93;;;6.10;99.90;;;;;;5041192;28;20049;-71
2023/01/10 09:30:43;;;;;;;41.95;12.52;;;6.10;99.90;;;;;;5041178;28;20061;-70
2023/01/10 09:33:08;;;;;;;32.08;11.25;;;6.10;99.90;;;;;;5041334;28;20056;-72
2023/01/10 09:35:36;;;;;;;30.23;9.13;;;6.10;99.90;;;;;;5038489;28;20029;-68
2023/01/10 09:38:04;;;;;;;37.30;10.60;;;6.10;99.90;;;;;;5039552;28;20072;-71
2023/01/10 09:40:45;;;;;;;30.02;11.05;;;6.10;99.90;;;;;;5040320;28;20112;-70
2023/01/10 09:43:26;;;;;;;35.17;10.32;;;6.20;99.90;;;;;;5039138;28;20155;-71
2023/01/10 09:46:08;;;;;;;33.15;10.63;;;6.20;99.90;;;;;;5038951;28;20029;-71
2023/01/10 09:49:11;;;;;;;36.97;10.23;;;6.20;99.90;;;;;;5037828;28;20096;-71
2023/01/10 09:51:41;;;;;;;39.85;10.65;;;6.30;99.90;;;;;;5037508;28;20026;-69
2023/01/10 09:54:23;;;;;;;28.90;9.60;;;6.30;99.90;;;;;;5040268;28;20029;-73
2023/01/10 09:56:49;;;;;;;28.55;8.95;;;6.30;99.90;;;;;;5038853;28;20060;-70
2023/01/10 09:59:18;;;;;;;29.35;10.27;;;6.40;99.90;;;;;;5038074;28;20089;-71
2023/01/10 10:01:47;;;;;;;34.25;9.43;;;6.40;99.90;;;;;;5040072;28;20085;-67
2023/01/10 10:04:26;;;;;;;33.17;9.45;;;6.50;99.90;;;;;;5040448;28;20048;-71
2023/01/10 10:06:52;;;;;;;36.55;9.80;;;6.60;99.90;;;;;;5038865;28;20117;-72
2023/01/10 10:09:24;;;;;;;31.92;9.02;;;6.60;99.90;;;;;;5040138;28;20747;-71
2023/01/10 10:12:24;;;;;;;28.60;8.70;;;6.50;99.90;;;;;;5039311;28;20464;-70
2023/01/10 10:15:17;;;;;;;36.30;9.90;;;6.50;99.90;;;;;;5038481;28;20031;-71
2023/01/10 10:17:59;;;;;;;36.67;9.50;;;6.50;99.90;;;;;;5038683;28;20124;-69
2023/01/10 10:20:54;;;;;;;29.10;9.48;;;6.60;99.90;;;;;;5040903;28;20025;-70
2023/01/10 10:23:34;;;;;;;28.60;8.52;;;6.60;99.90;;;;;;5039821;28;20033;-73
2023/01/10 10:26:13;;;;;;;33.35;9.85;;;6.60;99.90;;;;;;5040786;28;20140;-73
2023/01/10 10:28:56;;;;;;;31.23;9.70;;;6.60;99.90;;;;;;5040946;28;20022;-72
2023/01/10 10:31:50;;;;;;;32.55;10.00;;;6.60;99.90;;;;;;5043089;28;20037;-71
2023/01/10 10:34:40;;;;;;;30.33;9.33;;;6.70;99.90;;;;;;5042910;28;20037;-72
2023/01/10 10:37:32;;;;;;;34.25;9.75;;;6.70;99.90;;;;;;5044252;28;20022;-69
2023/01/10 10:40:16;;;;;;;33.83;9.77;;;6.70;99.90;;;;;;5044708;28;20109;-72
2023/01/10 10:42:46;;;;;;;;;;;6.70;99.90;;;;;;5044819;28;20025;-70
2023/01/10 10:45:17;;;;;;;47.17;13.90;;;6.70;99.90;;;;;;5042490;28;20282;-71
2023/01/10 10:47:49;;;;;;;38.72;13.15;;;6.70;99.90;;;;;;5041099;28;20030;-72
2023/01/10 10:50:14;;;;;;;45.88;12.65;;;6.70;99.90;;;;;;5042283;28;20040;-72
2023/01/10 10:52:43;;;;;;;38.03;11.90;;;6.80;99.90;;;;;;5040318;28;20029;-72
2023/01/10 10:55:22;;;;;;;42.78;12.82;;;6.80;99.90;;;;;;5039346;28;20041;-73
2023/01/10 10:57:48;;;;;;;36.15;11.68;;;6.90;99.90;;;;;;5041227;28;20124;-70
2023/01/10 11:00:17;;;;;;;38.38;13.30;;;7.00;99.90;;;;;;5040760;28;20021;-71
2023/01/10 11:03:06;;;;;;;41.67;13.00;;;7.00;99.90;;;;;;5042019;28;20022;-73
2023/01/10 11:05:37;;;;;;;45.17;13.93;;;7.00;99.90;;;;;;5042310;28;20017;-72
2023/01/10 11:08:08;;;;;;;30.27;10.68;;;7.10;99.90;;;;;;5043175;28;20033;-74
2023/01/10 11:10:34;;;;;;;36.38;11.85;;;7.10;99.90;;;;;;5042411;28;20048;-73
2023/01/10 11:13:21;;;;;;;38.95;11.45;;;7.20;99.90;;;;;;5042504;28;20022;-70
2023/01/10 11:15:48;;;;;;;31.88;10.38;;;7.20;99.90;;;;;;5038925;28;20042;-68
2023/01/10 11:18:23;;;;;;;29.00;11.57;;;7.30;99.90;;;;;;5039395;28;20490;-71
2023/01/10 11:20:58;;;;;;;28.35;10.60;;;7.40;99.90;;;;;;5034711;28;20029;-72
2023/01/10 11:23:54;;;;;;;36.47;12.15;;;7.50;99.90;;;;;;5035663;28;20220;-72
2023/01/10 11:26:27;;;;;;;38.05;12.35;;;7.60;99.90;;;;;;5038241;28;20505;-71
2023/01/10 11:29:21;;;;;;;52.28;12.48;;;7.60;99.90;;;;;;5034664;28;20030;-71
2023/01/10 11:31:49;;;;;;;38.70;12.88;;;7.60;99.90;;;;;;5041591;28;20124;-72
2023/01/10 11:34:29;;;;;;;43.72;11.43;;;7.70;99.90;;;;;;5041941;28;20109;-74
2023/01/10 11:37:02;;;;;;;28.35;9.93;;;7.70;99.90;;;;;;5041413;28;20503;-73
2023/01/10 11:39:29;;;;;;;34.95;12.07;;;7.70;99.90;;;;;;5038966;28;20060;-71
2023/01/10 11:41:57;;;;;;;40.38;12.77;;;8.00;99.90;;;;;;5042980;28;20028;-68
2023/01/10 11:44:28;;;;;;;39.20;12.02;;;8.10;99.90;;;;;;5041795;28;20472;-69
2023/01/10 11:46:57;;;;;;;41.20;11.50;;;8.20;99.90;;;;;;5041184;28;20116;-71
2023/01/10 11:49:42;;;;;;;39.80;12.00;;;8.10;99.90;;;;;;5042882;28;20017;-73
2023/01/10 11:52:26;;;;;;;31.60;11.10;;;8.10;99.90;;;;;;5041330;28;20038;-73
2023/01/10 11:54:55;;;;;;;38.43;11.60;;;8.20;99.90;;;;;;5042819;28;20030;-70
2023/01/10 11:57:27;;;;;;;36.15;10.27;;;8.20;99.90;;;;;;5042634;28;20032;-70
2023/01/10 11:59:59;;;;;;;30.77;10.00;;;8.40;99.90;;;;;;5041570;28;20033;-71
2023/01/10 12:02:29;;;;;;;23.55;9.98;;;8.70;99.90;;;;;;5042054;28;20081;-73
2023/01/10 12:04:58;;;;;;;28.55;9.85;;;9.20;99.90;;;;;;5042022;28;20100;-72
2023/01/10 12:07:23;;;;;;;24.33;8.57;;;9.50;99.90;;;;;;5041552;28;20037;-72
2023/01/10 12:09:58;;;;;;;20.48;8.70;;;9.70;99.90;;;;;;5039771;28;20021;-70
2023/01/10 12:12:29;;;;;;;32.10;8.45;;;9.70;99.90;;;;;;5038706;28;20043;-69
2023/01/10 12:14:56;;;;;;;35.53;8.82;;;9.60;99.90;;;;;;5040046;28;20037;-70
2023/01/10 12:17:29;;;;;;;30.23;8.48;;;9.50;99.90;;;;;;5040423;28;20033;-71
2023/01/10 12:19:59;;;;;;;24.77;8.68;;;9.40;99.90;;;;;;5042372;28;20398;-69
2023/01/10 12:22:41;;;;;;;27.95;8.55;;;9.30;99.90;;;;;;5041836;28;20482;-69
2023/01/10 12:25:18;;;;;;;22.75;8.27;;;9.20;99.90;;;;;;5040910;28;20049;-70
2023/01/10 12:27:47;;;;;;;28.50;8.30;;;9.10;99.90;;;;;;5040565;28;20486;-70
2023/01/10 12:30:26;;;;;;;25.30;8.73;;;9.00;99.90;;;;;;5040186;28;20022;-72
2023/01/10 12:32:55;;;;;;;28.77;8.30;;;8.80;99.90;;;;;;5039887;28;20405;-72
2023/01/10 12:35:33;;;;;;;23.27;8.00;;;8.60;99.90;;;;;;5040155;28;20029;-69
2023/01/10 12:38:18;;;;;;;43.42;10.23;;;8.50;99.90;;;;;;5040071;28;20101;-70
2023/01/10 12:40:53;;;;;;;29.25;9.68;;;8.30;99.90;;;;;;5038170;28;20041;-70
2023/01/10 12:46:37;;;;;;;33.47;10.00;;;8.30;99.90;;;;;;5038427;28;20436;-71
2023/01/10 12:49:26;;;;;;;33.53;9.13;;;8.30;99.90;;;;;;5040550;28;20037;-71
2023/01/10 12:51:54;;;;;;;36.10;11.35;;;8.20;99.90;;;;;;5041938;28;20048;-71
2023/01/10 12:54:25;;;;;;;31.48;10.13;;;8.20;99.90;;;;;;5037518;28;20026;-69
2023/01/10 12:56:51;;;;;;;31.08;9.02;;;8.20;99.90;;;;;;5041335;28;20014;-69
2023/01/10 12:59:36;;;;;;;22.88;8.60;;;8.20;99.90;;;;;;5041692;28;20121;-70
2023/01/10 13:02:03;;;;;;;28.15;9.95;;;8.10;99.90;;;;;;5040638;28;20025;-72
2023/01/10 13:04:33;;;;;;;32.08;10.18;;;8.10;99.90;;;;;;5041872;28;20025;-73
2023/01/10 13:07:00;;;;;;;35.42;11.65;;;8.00;99.90;;;;;;5040527;28;20101;-73
2023/01/10 13:09:28;;;;;;;35.30;11.43;;;8.00;99.90;;;;;;5041776;28;20017;-70
2023/01/10 13:12:05;;;;;;;47.28;12.57;;;7.90;99.90;;;;;;5038520;28;20077;-73
2023/01/10 13:14:43;;;;;;;44.90;13.50;;;7.90;99.90;;;;;;5040814;28;20093;-71